Aviation Digital Data Service (ADDS)

Output produced by METARs form (1147 UTC 24 May 2016)
found at http://www.aviationweather.gov/adds/metars/
 
KROW 241051Z 16003KT 10SM CLR 11/M01 A2987 RMK AO2 SLP054 T01111006
KROW 240951Z 21005KT 10SM CLR 15/M03 A2986 RMK AO2 SLP048 T01501028
KROW 240851Z 19007KT 10SM CLR 15/M02 A2986 RMK AO2 SLP045 T01501022 51007
KROW 240751Z 17005KT 10SM CLR 17/M02 A2985 RMK AO2 SLP042 T01671022
KROW 240651Z 00000KT 10SM CLR 14/M01 A2983 RMK AO2 SLP042 T01391006 403560139
KROW 240551Z 26009KT 10SM CLR 19/M03 A2983 RMK AO2 SLP037 T01941028 10344 20183 51015
KROW 240451Z 29006KT 10SM CLR 20/M03 A2981 RMK AO2 SLP032 T02001028
KROW 240351Z 26008KT 10SM CLR 24/M04 A2980 RMK AO2 SLP027 T02441044
KROW 240251Z 24007KT 10SM CLR 23/M05 A2978 RMK AO2 SLP025 T02331050 53014
KROW 240151Z 24009KT 10SM CLR 29/M07 A2976 RMK AO2 SLP013 T02891072
KROW 240051Z 25011KT 10SM CLR 33/M08 A2974 RMK AO2 SLP002 T03331083
KROW 232351Z 23015G22KT 10SM CLR 34/M09 A2974 RMK AO2 PK WND 24027/2305 SLP002 T03441094 10356 20289 55014
KROW 232251Z 25022G35KT 10SM CLR 35/M08 A2974 RMK AO2 PK WND 25035/2249 SLP000 T03501078
KROW 232151Z 15010G16KT 120V210 10SM CLR 34/M04 A2974 RMK AO2 SLP004 T03391039
KROW 232051Z 14016G21KT 10SM CLR 33/M02 A2978 RMK AO2 SLP018 T03331017 58027
KROW 231951Z 14010G16KT 10SM CLR 33/00 A2982 RMK AO2 SLP032 T03280000
KROW 231851Z VRB04KT 10SM CLR 31/01 A2984 RMK AO2 SLP043 T03110011
KROW 231751Z VRB03KT 10SM CLR 29/04 A2987 RMK AO2 SLP049 T02890044 10294 20156 58010
KROW 231651Z 05006KT 10SM CLR 28/11 A2989 RMK AO2 SLP057 T02780106
KROW 231551Z 00000KT 10SM CLR 24/11 A2989 RMK AO2 SLP063 T02440111
KROW 231451Z 00000KT 8SM CLR 22/14 A2991 RMK AO2 SLP069 T02170144 50012
KROW 231351Z 14007KT 7SM CLR 20/15 A2991 RMK AO2 SLP065 T02000150
KROW 231251Z 00000KT 10SM SCT009 18/09 A2989 RMK AO2 SLP055 T01780094
KROW 231227Z 05004KT 10SM SCT008 17/07 A2988 RMK AO2 T01670067
KROW 231151Z 05003KT 10SM CLR 17/05 A2987 RMK AO2 SLP046 T01670050 10211 20139 50006
KROW 241122Z 2412/2512 16012KT P6SM SKC 
     FM241600 20010KT P6SM SKC 
     FM242000 21020G30KT P6SM SKC 
     FM250300 22012KT P6SM SKC